METAR Data
IDs: Format: Raw Decoded Include TAF

Data at: 1758 UTC 21 Sep 2018

KGLE 211735Z AUTO 19007KT 10SM BKN018 BKN027 OVC038 26/23 A2998 RMK AO2 P0001 T02550233
KGLE 211715Z AUTO 18009KT 10SM BKN020 BKN025 OVC048 26/23 A2998 RMK AO2 T02570233
KGLE 211655Z AUTO 18009KT 10SM -RA SCT018 BKN025 OVC050 26/23 A2998 RMK AO2 P0004 T02550234
KGLE 211635Z AUTO 20007KT 10SM SCT028 SCT037 OVC048 25/24 A2999 RMK AO2 P0003 T02540236
KGLE 211615Z AUTO 18010KT 2 1/2SM -RA SCT019 BKN027 OVC044 24/22 A2999 RMK AO2 VIS 1V5 P0003 T02430224
KGLE 211555Z AUTO 18012G18KT 10SM BKN019 OVC025 27/22 A2999 RMK AO2 T02680223
KGLE 211535Z AUTO 18013G21KT 10SM OVC017 27/22 A2998 RMK AO2 T02660224
KGLE 211515Z AUTO 18013G20KT 10SM OVC015 26/23 A2998 RMK AO2 T02620226
KGLE 211455Z AUTO 17011KT 10SM OVC013 25/23 A2998 RMK AO2 T02530231
KGLE 211435Z AUTO 17010KT 10SM OVC013 25/23 A2998 RMK AO2 T02540225
KGLE 211415Z AUTO 17008KT 10SM OVC013 25/23 A2997 RMK AO2 T02500226
KGLE 211355Z AUTO 16008KT 10SM BKN013 BKN070 OVC090 25/23 A2997 RMK AO2 T02460227
KGLE 211335Z AUTO 15006KT 10SM SCT013 BKN070 OVC120 24/23 A2997 RMK AO2 T02400226
KGLE 211315Z AUTO 14005KT 10SM SCT013 BKN060 OVC120 24/22 A2997 RMK AO2 T02350223
KGLE 211255Z AUTO 13005KT 10SM SCT013 BKN023 OVC120 23/22 A2997 RMK AO2 T02320220
KGLE 211235Z AUTO 13005KT 10SM BKN015 OVC021 23/22 A2996 RMK AO2 T02310218
KGLE 211215Z AUTO 14005KT 10SM OVC015 23/22 A2996 RMK AO2 T02300217
KGLE 211155Z AUTO 15006KT 10SM OVC015 23/22 A2995 RMK AO2 T02300215 10235 20226
KGLE 211135Z AUTO 15005KT 10SM OVC015 23/22 A2995 RMK AO2 T02300215
KGLE 211115Z AUTO 15006KT 10SM OVC015 23/22 A2995 RMK AO2 T02300215
KGLE 211055Z AUTO 14006KT 10SM OVC015 23/21 A2995 RMK AO2 T02300213
KGLE 211035Z AUTO 15005KT 10SM OVC015 23/21 A2995 RMK AO2 T02300212
KGLE 211015Z AUTO 15004KT 10SM OVC015 23/21 A2995 RMK AO2 T02300212
KGLE 210955Z AUTO 16005KT 10SM OVC017 23/21 A2995 RMK AO2 T02300211
KGLE 210935Z AUTO 14004KT 10SM OVC017 23/21 A2995 RMK AO2 T02300211
KGLE 210915Z AUTO 15003KT 10SM OVC019 23/21 A2995 RMK AO2 T02300210
KGLE 210855Z AUTO 00000KT 10SM OVC019 23/21 A2996 RMK AO2 T02280210
KGLE 210835Z AUTO 15006KT 10SM RA OVC021 23/21 A2996 RMK AO2 T02310205
KGLE 210815Z AUTO 16005KT 10SM BKN026 OVC042 23/20 A2996 RMK AO2 T02340200
KGLE 210755Z AUTO 16004KT 10SM SCT028 OVC044 23/20 A2996 RMK AO2 T02300201
KGLE 210735Z AUTO 16004KT 10SM BKN048 OVC060 23/20 A2995 RMK AO2 T02300199
KGLE 210715Z AUTO 16006KT 10SM BKN046 OVC055 23/20 A2996 RMK AO2 T02290197
KGLE 210655Z AUTO 17007KT 10SM BKN049 BKN060 23/20 A2996 RMK AO2 T02270200
KGLE 210635Z AUTO 16005KT 10SM SCT050 23/20 A2995 RMK AO2 T02260200
KGLE 210615Z AUTO 19006KT 10SM CLR 23/20 A2995 RMK AO2 T02280202
KGLE 210555Z AUTO 18006KT 10SM CLR 23/20 A2995 RMK AO2 T02300203 10285 20230 403270217
KGLE 210535Z AUTO 17005KT 10SM CLR 23/20 A2996 RMK AO2 T02320204
KGLE 210515Z AUTO 19008KT 10SM CLR 24/20 A2996 RMK AO2 T02350203
KGLE 210455Z AUTO 18009G14KT 10SM CLR 24/21 A2996 RMK AO2 T02370205
KGLE 210435Z AUTO 17009KT 10SM CLR 24/21 A2997 RMK AO2 T02400207
KGLE 210415Z AUTO 18007KT 10SM CLR 24/21 A2996 RMK AO2 T02370210
KGLE 210355Z AUTO 17008KT 10SM CLR 24/21 A2996 RMK AO2 T02350208
KGLE 210335Z AUTO 17007KT 10SM SCT110 24/21 A2997 RMK AO2 T02350206
KGLE 210315Z AUTO 16008KT 10SM CLR 24/20 A2997 RMK AO2 T02360201
KGLE 210255Z AUTO 16010KT 10SM CLR 24/20 A2997 RMK AO2 T02380197
KGLE 210235Z AUTO 15005KT 10SM CLR 23/21 A2997 RMK AO2 T02320207
KGLE 210215Z AUTO 17003KT 10SM CLR 23/21 A2996 RMK AO2 T02320209
KGLE 210155Z AUTO 17004KT 10SM CLR 23/21 A2995 RMK AO2 T02330207
KGLE 210135Z AUTO 15003KT 10SM SCT038 SCT046 23/21 A2995 RMK AO2 T02320205
KGLE 210115Z AUTO 18006KT 10SM -RA SCT035 SCT042 SCT060 24/20 A2994 RMK AO2 T02370199
KGLE 210055Z AUTO 23004KT 10SM CLR 25/19 A2993 RMK AO2 T02470190
KGLE 210035Z AUTO 23007KT 10SM SCT065 25/19 A2993 RMK AO2 T02500190
KGLE 210015Z AUTO 23011G16KT 10SM SCT044 SCT050 SCT065 26/19 A2993 RMK AO2 T02560187
KGLE 202355Z AUTO 21020G24KT 10SM SCT050 29/20 A2992 RMK AO2 T02890195 10327 20289
KGLE 202335Z AUTO 16009KT 10SM CLR 29/19 A2990 RMK AO2 T02940189
KGLE 202315Z AUTO 16011G16KT 10SM CLR 30/19 A2990 RMK AO2 T03000185
KGLE 202255Z AUTO 16009KT 10SM CLR 30/19 A2990 RMK AO2 T03030192
KGLE 202235Z AUTO 14014G18KT 10SM CLR 30/20 A2989 RMK AO2 T02990199
KGLE 202215Z AUTO 15010G20KT 10SM CLR 30/20 A2989 RMK AO2 T02990204
KGLE 202155Z AUTO 14015KT 10SM CLR 32/21 A2989 RMK AO2 T03160206
KGLE 202135Z AUTO 15013G18KT 7SM SCT043 31/21 A2990 RMK AO2 T03100208
KGLE 202115Z AUTO 15013KT 10SM SCT043 SCT050 32/21 A2990 RMK AO2 T03180209
KGLE 202055Z AUTO 16012G19KT 10SM SCT043 SCT050 31/20 A2991 RMK AO2 T03110203
KGLE 202035Z AUTO 15012G18KT 10SM SCT045 SCT050 32/21 A2991 RMK AO2 T03230205
KGLE 202015Z AUTO 15012G15KT 10SM SCT045 BKN050 32/20 A2992 RMK AO2 T03190202
KGLE 201955Z AUTO 16011G16KT 10SM SCT045 32/20 A2992 RMK AO2 T03200201
KGLE 201935Z AUTO 14014KT 10SM SCT045 32/20 A2993 RMK AO2 T03200199
KGLE 201915Z AUTO 16013G16KT 10SM SCT045 32/20 A2994 RMK AO2 T03180200
KGLE 201855Z AUTO 15009G16KT 10SM CLR 33/20 A2995 RMK AO2 T03250202
KGLE 201835Z AUTO 15010G18KT 10SM CLR 32/20 A2995 RMK AO2 T03200200
KGLE 201815Z AUTO 18012G17KT 10SM SCT043 32/19 A2996 RMK AO2 T03200192
KGLE 201755Z AUTO 18012G16KT 10SM SCT040 32/20 A2997 RMK AO2 T03170198 10317 20218
KGLE 201735Z AUTO 15009KT 120V180 10SM SCT038 31/21 A2998 RMK AO2 T03090208
KGLE 201715Z AUTO 17009KT 10SM CLR 31/21 A2999 RMK AO2 T03080206
KGLE 201655Z AUTO 17008G16KT 10SM CLR 31/20 A2999 RMK AO2 T03070197
KGLE 201635Z AUTO 15007KT 10SM CLR 30/21 A2999 RMK AO2 T03000209
KGLE 201615Z AUTO 16010KT 10SM CLR 30/21 A3000 RMK AO2 T03000207
KGLE 201555Z AUTO 17009KT 10SM CLR 29/21 A3000 RMK AO2 T02940211
KGLE 201535Z AUTO 20006KT 10SM CLR 29/21 A3000 RMK AO2 T02880211
KGLE 201515Z AUTO 20005KT 10SM CLR 28/21 A3000 RMK AO2 T02790213
KGLE 201455Z AUTO 17006KT 10SM CLR 27/21 A3000 RMK AO2 T02690213
KGLE 201435Z AUTO 18005KT 10SM CLR 27/21 A2998 RMK AO2 T02660212
KGLE 201415Z AUTO 20006KT 10SM CLR 26/21 A2998 RMK AO2 T02610212
KGLE 201355Z AUTO 18004KT 10SM CLR 25/22 A2998 RMK AO2 T02530216
KGLE 201335Z AUTO 00000KT 10SM CLR 24/21 A2998 RMK AO2 T02410212
KGLE 201315Z AUTO 14004KT 10SM CLR 23/21 A2997 RMK AO2 T02320212
KGLE 201255Z AUTO 13003KT 10SM CLR 23/20 A2996 RMK AO2 T02250204
KGLE 201235Z AUTO 00000KT 10SM CLR 22/20 A2996 RMK AO2 T02190201
KGLE 201215Z AUTO 19003KT 10SM CLR 22/20 A2995 RMK AO2 T02190200
KGLE 201155Z AUTO 15003KT 10SM CLR 22/20 A2994 RMK AO2 T02180200 10243 20217
KGLE 201135Z AUTO 17003KT 10SM CLR 22/20 A2995 RMK AO2 T02200200
KGLE 201115Z AUTO 20003KT 10SM CLR 22/20 A2995 RMK AO2 T02220200
KGLE 201055Z AUTO 15003KT 10SM CLR 22/20 A2994 RMK AO2 T02190200
KGLE 201035Z AUTO 15003KT 10SM CLR 22/20 A2994 RMK AO2 T02230200
KGLE 201015Z AUTO 19003KT 10SM CLR 23/20 A2994 RMK AO2 T02280201
KGLE 200955Z AUTO 20003KT 10SM CLR 23/20 A2994 RMK AO2 T02250200
KGLE 200935Z AUTO 17003KT 10SM CLR 22/20 A2994 RMK AO2 T02220201
KGLE 200915Z AUTO 15003KT 10SM CLR 23/20 A2994 RMK AO2 T02300202
KGLE 200855Z AUTO 00000KT 10SM CLR 23/21 A2994 RMK AO2 T02330205
KGLE 200835Z AUTO 00000KT 10SM CLR 24/21 A2994 RMK AO2 T02370205
KGLE 200815Z AUTO 00000KT 10SM CLR 24/21 A2995 RMK AO2 T02360205
KGLE 200755Z AUTO 00000KT 10SM CLR 24/21 A2995 RMK AO2 T02380205
KGLE 200735Z AUTO 19004KT 10SM CLR 24/21 A2995 RMK AO2 T02400205
KGLE 200715Z AUTO 18006KT 10SM CLR 24/21 A2995 RMK AO2 T02400207
KGLE 200655Z AUTO 19006KT 10SM CLR 24/21 A2995 RMK AO2 T02400211
KGLE 200635Z AUTO 18006KT 10SM CLR 24/21 A2995 RMK AO2 T02370212
KGLE 200615Z AUTO 17003KT 10SM CLR 24/22 A2996 RMK AO2 T02390215